createdAt,value
2018-05-16T00:01:08.478Z,17.12
2018-05-16T00:03:37.311Z,17.20
2018-05-16T00:06:06.147Z,17.13
2018-05-16T00:08:34.997Z,17.03
2018-05-16T00:11:03.818Z,16.99
2018-05-16T00:13:32.649Z,16.93
2018-05-16T00:16:01.484Z,16.98
2018-05-16T00:18:30.285Z,16.97
2018-05-16T00:20:59.138Z,16.96
2018-05-16T00:23:27.954Z,16.92
2018-05-16T00:25:56.755Z,16.71
2018-05-16T00:28:25.586Z,16.60
2018-05-16T00:30:54.386Z,16.52
2018-05-16T00:33:23.241Z,16.43
2018-05-16T00:35:52.064Z,16.52
2018-05-16T00:38:20.938Z,16.30
2018-05-16T00:40:49.699Z,16.20
2018-05-16T00:43:18.540Z,16.11
2018-05-16T00:45:47.379Z,16.05
2018-05-16T00:48:16.214Z,16.16
2018-05-16T00:51:23.881Z,15.92
2018-05-16T00:53:52.695Z,16.18
2018-05-16T00:56:21.512Z,16.06
2018-05-16T00:58:50.359Z,15.92
2018-05-16T01:01:19.176Z,15.75
2018-05-16T01:03:48.008Z,15.62
2018-05-16T01:06:16.843Z,15.56
2018-05-16T01:08:45.641Z,15.55
2018-05-16T01:11:14.460Z,15.53
2018-05-16T01:13:43.279Z,15.48
2018-05-16T01:16:12.092Z,15.50
2018-05-16T01:18:40.928Z,15.51
2018-05-16T01:21:09.760Z,15.56
2018-05-16T01:23:38.562Z,15.60
2018-05-16T01:26:07.376Z,15.63
2018-05-16T01:28:36.211Z,15.66
2018-05-16T01:31:05.029Z,15.83
2018-05-16T01:33:33.890Z,15.70
2018-05-16T01:36:02.708Z,15.68
2018-05-16T01:38:31.533Z,15.65
2018-05-16T01:41:00.326Z,15.63
2018-05-16T01:43:29.154Z,15.60
2018-05-16T01:45:57.953Z,15.48
2018-05-16T01:48:26.790Z,15.39
2018-05-16T01:50:55.609Z,15.33
2018-05-16T01:53:24.408Z,15.24
2018-05-16T01:55:53.243Z,15.18
2018-05-16T01:58:22.046Z,15.20
2018-05-16T02:00:50.873Z,15.22
2018-05-16T02:03:19.693Z,15.50
2018-05-16T02:05:48.540Z,15.36
2018-05-16T02:08:17.356Z,15.41
2018-05-16T02:10:46.174Z,15.44
2018-05-16T02:13:15.010Z,15.49
2018-05-16T02:15:43.807Z,15.49
2018-05-16T02:18:12.610Z,15.53
2018-05-16T02:20:41.558Z,15.52
2018-05-16T02:23:10.395Z,15.54
2018-05-16T02:25:39.209Z,15.58
2018-05-16T02:28:08.025Z,15.56
2018-05-16T02:30:36.835Z,15.58
2018-05-16T02:33:05.673Z,15.60
2018-05-16T02:35:34.490Z,15.65
2018-05-16T02:38:03.303Z,15.66
2018-05-16T02:40:32.152Z,15.70
2018-05-16T02:43:00.972Z,15.75
2018-05-16T02:45:29.816Z,15.78
2018-05-16T02:47:58.641Z,15.79
2018-05-16T02:50:27.477Z,15.82
2018-05-16T02:52:56.295Z,15.82
2018-05-16T02:55:25.125Z,15.80
2018-05-16T02:57:53.952Z,15.77
2018-05-16T03:00:22.794Z,15.80
2018-05-16T03:02:51.608Z,15.80
2018-05-16T03:05:20.431Z,15.69
2018-05-16T03:07:49.282Z,15.73
2018-05-16T03:10:18.104Z,15.78
2018-05-16T03:12:46.934Z,15.82
2018-05-16T03:15:15.728Z,15.84
2018-05-16T03:17:44.561Z,15.85
2018-05-16T03:20:13.388Z,15.77
2018-05-16T03:22:42.197Z,15.79
2018-05-16T03:25:11.056Z,15.81
2018-05-16T03:27:39.878Z,15.62
2018-05-16T03:30:08.694Z,15.57
2018-05-16T03:32:37.549Z,15.61
2018-05-16T03:35:06.347Z,15.67
2018-05-16T03:37:35.201Z,15.76
2018-05-16T03:40:04.037Z,15.82
2018-05-16T03:42:32.875Z,15.86
2018-05-16T03:45:01.704Z,15.88
2018-05-16T03:47:30.551Z,15.93
2018-05-16T03:49:59.361Z,16.16
2018-05-16T03:52:28.185Z,16.11
2018-05-16T03:54:57.005Z,16.18
2018-05-16T03:58:03.493Z,16.28
2018-05-16T04:01:23.232Z,16.33
2018-05-16T04:04:17.496Z,16.38
2018-05-16T04:06:46.312Z,16.42
2018-05-16T04:09:15.151Z,16.47
2018-05-16T04:11:43.964Z,16.50
2018-05-16T04:14:12.796Z,16.48
2018-05-16T04:16:41.616Z,16.46
2018-05-16T04:19:10.428Z,16.46
2018-05-16T04:21:39.243Z,16.55
2018-05-16T04:24:08.085Z,16.56
2018-05-16T04:26:36.903Z,16.57
2018-05-16T04:29:05.725Z,16.70
2018-05-16T04:31:34.562Z,16.69
2018-05-16T04:34:03.380Z,16.74
2018-05-16T04:36:32.230Z,16.74
2018-05-16T04:39:01.038Z,16.83
2018-05-16T04:41:29.862Z,16.91
2018-05-16T04:43:58.689Z,16.99
2018-05-16T04:46:27.477Z,17.09
2018-05-16T04:48:56.284Z,17.17
2018-05-16T04:51:27.936Z,17.20
2018-05-16T04:53:56.733Z,17.26
2018-05-16T04:56:25.543Z,17.31
2018-05-16T04:58:54.388Z,17.39
2018-05-16T05:01:23.215Z,17.46
2018-05-16T05:03:52.021Z,17.55
2018-05-16T05:06:20.866Z,17.61
2018-05-16T05:08:49.749Z,17.66
2018-05-16T05:11:18.519Z,17.66
2018-05-16T05:13:47.378Z,17.70
2018-05-16T05:16:16.236Z,17.77
2018-05-16T05:18:45.099Z,17.90
2018-05-16T05:21:13.905Z,18.02
2018-05-16T05:23:42.735Z,18.10
2018-05-16T05:26:11.564Z,18.14
2018-05-16T05:28:40.384Z,18.14
2018-05-16T05:31:09.213Z,18.17
2018-05-16T05:33:38.060Z,18.27
2018-05-16T05:36:06.894Z,18.26
2018-05-16T05:38:35.729Z,18.32
2018-05-16T05:41:04.547Z,18.18
2018-05-16T05:43:33.397Z,18.10
2018-05-16T05:46:02.216Z,18.15
2018-05-16T05:48:31.154Z,18.23
2018-05-16T05:50:59.905Z,18.39
2018-05-16T05:53:28.744Z,18.52
2018-05-16T05:55:57.593Z,18.69
2018-05-16T05:58:26.438Z,18.78
2018-05-16T06:00:55.298Z,18.88
2018-05-16T06:03:24.117Z,18.94
2018-05-16T06:05:52.991Z,18.98
2018-05-16T06:08:21.934Z,19.05
2018-05-16T06:10:50.907Z,19.09
2018-05-16T06:13:19.709Z,19.14
2018-05-16T06:15:48.534Z,19.27
2018-05-16T06:18:17.365Z,19.50
2018-05-16T06:20:46.260Z,19.58
2018-05-16T06:23:15.050Z,19.56
2018-05-16T06:25:43.866Z,19.66
2018-05-16T06:28:12.771Z,19.65
2018-05-16T06:30:41.758Z,19.67
2018-05-16T06:33:10.613Z,19.62
2018-05-16T06:35:39.484Z,19.51
2018-05-16T06:38:08.361Z,19.49
2018-05-16T06:40:37.398Z,19.33
2018-05-16T06:43:06.378Z,19.26
2018-05-16T06:45:35.179Z,19.20
2018-05-16T06:48:04.018Z,19.10
2018-05-16T06:50:32.845Z,19.05
2018-05-16T06:53:01.805Z,18.97
2018-05-16T06:55:30.559Z,18.99
2018-05-16T06:58:00.235Z,18.88
2018-05-16T07:00:29.031Z,18.81
2018-05-16T07:02:57.893Z,18.82
2018-05-16T07:05:26.706Z,18.81
2018-05-16T07:07:55.572Z,18.65
2018-05-16T07:10:24.822Z,18.57
2018-05-16T07:12:54.785Z,18.51
2018-05-16T07:15:23.940Z,18.42
2018-05-16T07:17:52.988Z,18.36
2018-05-16T07:20:22.122Z,18.32
2018-05-16T07:22:51.527Z,18.30
2018-05-16T07:25:20.487Z,18.29
2018-05-16T07:27:49.578Z,18.29
2018-05-16T07:30:18.523Z,18.28
2018-05-16T07:32:47.801Z,18.17
2018-05-16T07:35:19.939Z,18.11
2018-05-16T07:37:49.254Z,18.04
2018-05-16T07:40:19.172Z,17.96
2018-05-16T07:42:48.453Z,17.90
2018-05-16T07:45:17.630Z,17.85
2018-05-16T07:47:46.768Z,17.86
2018-05-16T07:50:16.112Z,17.90
2018-05-16T07:52:45.001Z,17.90
2018-05-16T07:55:14.368Z,17.85
2018-05-16T07:57:43.367Z,17.86
2018-05-16T08:00:12.420Z,17.83
2018-05-16T08:02:41.437Z,17.76
2018-05-16T08:05:10.870Z,17.78
2018-05-16T08:07:39.912Z,17.79
2018-05-16T08:10:08.749Z,17.74
2018-05-16T08:12:38.162Z,17.73
2018-05-16T08:15:07.414Z,17.76
2018-05-16T08:17:36.756Z,17.76
2018-05-16T08:20:05.855Z,17.76
2018-05-16T08:22:35.004Z,17.76
2018-05-16T08:25:04.174Z,17.75
2018-05-16T08:27:33.442Z,17.77
2018-05-16T08:30:03.035Z,17.87
2018-05-16T08:32:32.563Z,17.93
2018-05-16T08:35:01.716Z,18.01
2018-05-16T08:37:30.842Z,18.13
2018-05-16T08:40:00.028Z,18.16
2018-05-16T08:42:29.028Z,18.24
2018-05-16T08:44:58.045Z,18.18
2018-05-16T08:47:27.145Z,18.17
2018-05-16T08:49:56.294Z,18.17
2018-05-16T08:52:25.313Z,18.17
2018-05-16T08:54:54.481Z,18.17
2018-05-16T08:57:23.716Z,18.19
2018-05-16T08:59:53.041Z,18.24
2018-05-16T09:02:22.227Z,18.32
2018-05-16T09:04:51.248Z,18.33
2018-05-16T09:07:20.302Z,18.31
2018-05-16T09:09:49.807Z,18.31
2018-05-16T09:12:18.869Z,18.26
2018-05-16T09:14:48.152Z,18.27
2018-05-16T09:17:17.504Z,18.37
2018-05-16T09:19:46.410Z,18.31
2018-05-16T09:22:17.020Z,18.34
2018-05-16T09:24:45.964Z,18.32
2018-05-16T09:27:15.355Z,18.33
2018-05-16T09:29:44.492Z,18.38
2018-05-16T09:32:13.577Z,18.41
2018-05-16T09:34:42.555Z,18.49
2018-05-16T09:37:11.947Z,18.59
2018-05-16T09:39:41.219Z,18.66
2018-05-16T09:42:11.068Z,18.71
2018-05-16T09:44:40.416Z,18.77
2018-05-16T09:47:09.665Z,18.79
2018-05-16T09:49:39.060Z,18.90
2018-05-16T09:52:08.389Z,18.94
2018-05-16T09:54:37.595Z,18.98
2018-05-16T09:57:07.749Z,19.01
2018-05-16T09:59:36.744Z,19.06
2018-05-16T10:02:05.869Z,19.21
2018-05-16T10:04:34.977Z,19.30
2018-05-16T10:07:04.230Z,19.38
2018-05-16T10:09:33.192Z,19.42
2018-05-16T10:12:02.347Z,19.46
2018-05-16T10:14:31.719Z,19.52
2018-05-16T10:17:01.619Z,19.68
2018-05-16T10:19:30.849Z,19.80
2018-05-16T10:22:00.744Z,19.92
2018-05-16T10:24:30.050Z,19.99
2018-05-16T10:26:59.040Z,20.24
2018-05-16T10:29:28.585Z,20.51
2018-05-16T10:31:57.877Z,20.70
2018-05-16T10:34:27.159Z,20.89
2018-05-16T10:36:56.175Z,21.10
2018-05-16T10:39:25.378Z,21.22
2018-05-16T10:41:54.933Z,21.36
2018-05-16T10:44:24.163Z,21.48
2018-05-16T10:46:53.511Z,21.68
2018-05-16T10:49:22.655Z,21.94
2018-05-16T10:51:51.653Z,22.33
2018-05-16T10:54:21.469Z,22.86
2018-05-16T10:56:50.642Z,23.43
2018-05-16T10:59:19.774Z,24.18
2018-05-16T11:01:49.665Z,25.16
2018-05-16T11:04:54.524Z,25.90
2018-05-16T11:07:23.846Z,26.81
2018-05-16T11:09:53.343Z,27.57
2018-05-16T11:12:22.332Z,27.69
2018-05-16T11:14:51.354Z,27.41
2018-05-16T11:17:20.643Z,27.28
2018-05-16T11:19:49.787Z,27.02
2018-05-16T11:22:18.851Z,26.96
2018-05-16T11:24:47.928Z,26.83
2018-05-16T11:27:16.881Z,26.97
2018-05-16T11:29:46.119Z,27.47
2018-05-16T11:32:17.752Z,27.83
2018-05-16T11:34:46.831Z,27.92
2018-05-16T11:37:16.009Z,28.48
2018-05-16T11:39:45.111Z,29.15
2018-05-16T11:42:14.221Z,29.26
2018-05-16T11:44:43.275Z,29.50
2018-05-16T11:47:12.384Z,29.51
2018-05-16T11:49:41.595Z,29.61
2018-05-16T11:52:10.798Z,29.50
2018-05-16T11:54:40.100Z,29.07
2018-05-16T11:57:09.134Z,28.87
2018-05-16T11:59:38.146Z,28.39
2018-05-16T12:02:07.319Z,28.29
2018-05-16T12:04:36.375Z,28.01
2018-05-16T12:07:05.259Z,27.94
2018-05-16T12:09:35.461Z,28.14
2018-05-16T12:12:06.599Z,28.06
2018-05-16T12:14:37.057Z,28.01
2018-05-16T12:17:07.715Z,27.82
2018-05-16T12:19:36.822Z,27.42
2018-05-16T12:22:05.822Z,27.14
2018-05-16T12:24:35.388Z,27.03
2018-05-16T12:27:04.343Z,26.85
2018-05-16T12:29:33.685Z,26.63
2018-05-16T12:32:03.270Z,26.76
2018-05-16T12:34:32.587Z,26.98
2018-05-16T12:37:01.482Z,27.10
2018-05-16T12:39:30.897Z,27.21
2018-05-16T12:41:59.939Z,27.32
2018-05-16T12:44:28.949Z,27.27
2018-05-16T12:46:58.166Z,27.22
2018-05-16T12:49:30.236Z,27.12
2018-05-16T12:51:59.154Z,27.02
2018-05-16T12:54:28.284Z,27.06
2018-05-16T12:56:57.401Z,27.02
2018-05-16T12:59:26.468Z,26.94
2018-05-16T13:01:55.298Z,26.86
2018-05-16T13:04:24.756Z,26.83
2018-05-16T13:06:54.040Z,26.63
2018-05-16T13:09:22.989Z,26.70
2018-05-16T13:11:52.703Z,26.54
2018-05-16T13:14:21.795Z,26.46
2018-05-16T13:16:51.031Z,26.33
2018-05-16T13:19:21.050Z,26.30
2018-05-16T13:21:50.030Z,26.24
2018-05-16T13:24:18.996Z,26.22
2018-05-16T13:26:48.218Z,26.16
2018-05-16T13:29:18.016Z,26.04
2018-05-16T13:31:47.184Z,26.06
2018-05-16T13:34:16.337Z,25.94
2018-05-16T13:36:45.364Z,25.89
2018-05-16T13:39:14.337Z,25.80
2018-05-16T13:41:43.608Z,25.66
2018-05-16T13:44:12.470Z,25.48
2018-05-16T13:46:41.857Z,25.30
2018-05-16T13:49:13.479Z,25.03
2018-05-16T13:51:42.521Z,24.98
2018-05-16T13:54:11.330Z,25.24
2018-05-16T13:56:40.222Z,25.38
2018-05-16T13:59:09.019Z,25.36
2018-05-16T14:01:37.859Z,25.48
2018-05-16T14:04:06.728Z,25.50
2018-05-16T14:06:35.713Z,25.37
2018-05-16T14:09:05.562Z,25.33
2018-05-16T14:11:34.420Z,25.21
2018-05-16T14:14:03.434Z,25.29
2018-05-16T14:16:32.510Z,25.34
2018-05-16T14:19:01.458Z,25.40
2018-05-16T14:21:30.272Z,25.27
2018-05-16T14:23:59.128Z,25.23
2018-05-16T14:26:27.960Z,25.14
2018-05-16T14:28:56.819Z,24.90
2018-05-16T14:31:25.667Z,24.92
2018-05-16T14:33:54.501Z,24.79
2018-05-16T14:36:23.332Z,24.76
2018-05-16T14:38:52.152Z,24.77
2018-05-16T14:41:20.970Z,24.69
2018-05-16T14:43:49.858Z,24.63
2018-05-16T14:46:18.706Z,24.64
2018-05-16T14:48:47.538Z,24.53
2018-05-16T14:51:16.392Z,24.45
2018-05-16T14:53:45.223Z,24.42
2018-05-16T14:56:14.076Z,24.31
2018-05-16T14:58:42.902Z,24.21
2018-05-16T15:01:11.747Z,24.10
2018-05-16T15:03:40.594Z,23.98
2018-05-16T15:06:09.444Z,23.88
2018-05-16T15:08:38.282Z,23.73
2018-05-16T15:11:07.293Z,23.52
2018-05-16T15:13:36.242Z,23.44
2018-05-16T15:16:05.325Z,23.45
2018-05-16T15:18:34.142Z,23.41
2018-05-16T15:21:02.959Z,23.33
2018-05-16T15:23:31.888Z,23.30
2018-05-16T15:26:00.712Z,23.37
2018-05-16T15:28:29.563Z,23.37
2018-05-16T15:30:58.389Z,23.34
2018-05-16T15:33:27.230Z,23.31
2018-05-16T15:35:56.045Z,23.31
2018-05-16T15:38:24.970Z,23.25
2018-05-16T15:40:53.701Z,23.06
2018-05-16T15:43:22.558Z,22.95
2018-05-16T15:45:51.382Z,22.94
2018-05-16T15:48:20.197Z,22.86
2018-05-16T15:50:49.040Z,22.77
2018-05-16T15:53:17.851Z,22.74
2018-05-16T15:55:46.682Z,22.68
2018-05-16T15:58:15.503Z,22.54
2018-05-16T16:00:44.384Z,22.56
2018-05-16T16:03:13.156Z,22.38
2018-05-16T16:05:41.975Z,22.33
2018-05-16T16:08:10.912Z,22.40
2018-05-16T16:10:39.640Z,22.41
2018-05-16T16:13:08.562Z,22.32
2018-05-16T16:15:37.400Z,22.38
2018-05-16T16:18:06.306Z,22.48
2018-05-16T16:20:35.123Z,22.48
2018-05-16T16:23:03.992Z,22.30
2018-05-16T16:25:32.808Z,22.31
2018-05-16T16:28:01.625Z,22.24
2018-05-16T16:30:30.448Z,22.20
2018-05-16T16:32:59.286Z,22.11
2018-05-16T16:35:28.107Z,22.00
2018-05-16T16:37:56.915Z,21.77
2018-05-16T16:40:25.757Z,21.71
2018-05-16T16:42:54.556Z,21.54
2018-05-16T16:45:23.407Z,21.59
2018-05-16T16:47:52.216Z,21.28
2018-05-16T16:50:21.034Z,21.05
2018-05-16T16:52:49.836Z,21.03
2018-05-16T16:55:18.655Z,20.96
2018-05-16T16:57:47.452Z,21.01
2018-05-16T17:00:16.286Z,21.06
2018-05-16T17:02:45.108Z,21.06
2018-05-16T17:05:13.899Z,21.01
2018-05-16T17:07:42.740Z,20.96
2018-05-16T17:10:11.570Z,20.84
2018-05-16T17:12:40.461Z,20.70
2018-05-16T17:15:09.405Z,20.55
2018-05-16T17:17:38.246Z,20.52
2018-05-16T17:20:07.382Z,20.38
2018-05-16T17:22:36.229Z,20.31
2018-05-16T17:25:05.038Z,20.22
2018-05-16T17:27:33.887Z,20.22
2018-05-16T17:30:02.701Z,20.17
2018-05-16T17:32:31.522Z,20.13
2018-05-16T17:35:00.345Z,20.10
2018-05-16T17:37:29.179Z,19.94
2018-05-16T17:39:57.996Z,19.68
2018-05-16T17:42:26.822Z,19.46
2018-05-16T17:44:55.654Z,19.40
2018-05-16T17:47:24.457Z,19.26
2018-05-16T17:49:53.288Z,19.10
2018-05-16T17:52:22.325Z,19.06
2018-05-16T17:54:51.155Z,18.78
2018-05-16T17:57:19.987Z,18.77
2018-05-16T17:59:48.849Z,18.77
2018-05-16T18:02:17.678Z,18.87
2018-05-16T18:04:46.481Z,18.84
2018-05-16T18:07:15.347Z,18.82
2018-05-16T18:09:44.161Z,18.75
2018-05-16T18:12:13.232Z,18.65
2018-05-16T18:15:25.873Z,18.55
2018-05-16T18:17:54.734Z,18.51
2018-05-16T18:20:23.534Z,18.45
2018-05-16T18:22:52.372Z,18.27
2018-05-16T18:25:21.304Z,18.20
2018-05-16T18:27:50.131Z,18.09
2018-05-16T18:30:18.961Z,18.07
2018-05-16T18:32:47.825Z,18.05
2018-05-16T18:35:16.663Z,18.00
2018-05-16T18:37:45.511Z,18.02
2018-05-16T18:40:14.331Z,17.88
2018-05-16T18:42:43.234Z,17.88
2018-05-16T18:45:12.010Z,17.78
2018-05-16T18:47:40.858Z,17.67
2018-05-16T18:50:09.651Z,17.64
2018-05-16T18:52:38.487Z,17.61
2018-05-16T18:55:07.324Z,17.44
2018-05-16T18:57:36.146Z,17.28
2018-05-16T19:00:05.030Z,17.29
2018-05-16T19:02:33.872Z,17.25
2018-05-16T19:05:02.711Z,17.25
2018-05-16T19:07:31.524Z,17.15
2018-05-16T19:10:00.389Z,17.11
2018-05-16T19:12:29.319Z,17.06
2018-05-16T19:14:58.322Z,17.09
2018-05-16T19:17:27.213Z,17.00
2018-05-16T19:19:56.120Z,16.96
2018-05-16T19:22:24.892Z,16.92
2018-05-16T19:24:53.711Z,16.87
2018-05-16T19:27:22.536Z,16.79
2018-05-16T19:29:51.327Z,16.70
2018-05-16T19:32:20.165Z,16.62
2018-05-16T19:34:48.985Z,16.61
2018-05-16T19:37:17.799Z,16.64
2018-05-16T19:39:46.604Z,16.64
2018-05-16T19:42:15.424Z,16.64
2018-05-16T19:44:44.219Z,16.55
2018-05-16T19:47:13.044Z,16.39
2018-05-16T19:49:41.830Z,16.40
2018-05-16T19:52:10.682Z,16.36
2018-05-16T19:54:39.522Z,16.36
2018-05-16T19:57:08.400Z,16.34
2018-05-16T19:59:37.197Z,16.32
2018-05-16T20:02:05.996Z,16.27
2018-05-16T20:04:34.850Z,16.19
2018-05-16T20:07:03.676Z,16.23
2018-05-16T20:09:32.542Z,16.18
2018-05-16T20:12:01.477Z,16.08
2018-05-16T20:14:30.389Z,16.05
2018-05-16T20:16:59.105Z,16.06
2018-05-16T20:19:27.927Z,16.02
2018-05-16T20:21:56.772Z,16.03
2018-05-16T20:24:25.586Z,16.04
2018-05-16T20:26:54.423Z,16.00
2018-05-16T20:29:23.285Z,16.07
2018-05-16T20:31:52.054Z,15.96
2018-05-16T20:34:20.873Z,16.01
2018-05-16T20:36:49.713Z,15.84
2018-05-16T20:39:18.517Z,15.83
2018-05-16T20:41:47.318Z,15.78
2018-05-16T20:44:16.184Z,15.69
2018-05-16T20:46:44.988Z,15.66
2018-05-16T20:49:13.865Z,15.58
2018-05-16T20:51:42.672Z,15.62
2018-05-16T20:54:11.524Z,15.50
2018-05-16T20:56:40.373Z,15.57
2018-05-16T20:59:09.219Z,15.49
2018-05-16T21:01:38.059Z,15.49
2018-05-16T21:04:06.884Z,15.44
2018-05-16T21:06:35.743Z,15.32
2018-05-16T21:09:05.820Z,15.31
2018-05-16T21:11:34.646Z,15.23
2018-05-16T21:14:03.500Z,15.19
2018-05-16T21:16:32.331Z,15.13
2018-05-16T21:19:01.304Z,15.10
2018-05-16T21:21:30.104Z,15.02
2018-05-16T21:23:58.904Z,15.05
2018-05-16T21:26:27.830Z,14.96
2018-05-16T21:28:56.649Z,14.94
2018-05-16T21:31:25.492Z,14.89
2018-05-16T21:33:54.316Z,14.87
2018-05-16T21:36:23.125Z,14.87
2018-05-16T21:38:51.971Z,14.78
2018-05-16T21:41:20.774Z,14.66
2018-05-16T21:43:49.590Z,14.59
2018-05-16T21:46:18.392Z,14.61
2018-05-16T21:48:47.224Z,14.53
2018-05-16T21:51:16.027Z,14.37
2018-05-16T21:53:44.832Z,14.38
2018-05-16T21:56:13.631Z,14.35
2018-05-16T21:58:42.455Z,14.33
2018-05-16T22:01:11.258Z,14.19
2018-05-16T22:03:40.070Z,14.18
2018-05-16T22:06:08.891Z,14.14
2018-05-16T22:08:37.701Z,14.09
2018-05-16T22:11:06.561Z,14.09
2018-05-16T22:13:35.508Z,13.90
2018-05-16T22:16:04.291Z,13.89
2018-05-16T22:18:33.095Z,13.76
2018-05-16T22:21:01.914Z,13.74
2018-05-16T22:23:30.752Z,13.72
2018-05-16T22:25:59.575Z,13.63
2018-05-16T22:28:28.377Z,13.54
2018-05-16T22:31:15.074Z,13.55
2018-05-16T22:34:01.862Z,13.46
2018-05-16T22:36:48.467Z,13.41
2018-05-16T22:39:34.972Z,13.32
2018-05-16T22:42:21.372Z,13.17
2018-05-16T22:44:50.208Z,13.11
2018-05-16T22:47:19.017Z,13.10
2018-05-16T22:49:47.826Z,13.12
2018-05-16T22:52:16.642Z,13.08
2018-05-16T22:54:45.459Z,13.05
2018-05-16T22:57:14.359Z,13.06
2018-05-16T22:59:43.190Z,13.07
2018-05-16T23:02:12.037Z,13.06
2018-05-16T23:04:40.860Z,12.94
2018-05-16T23:07:09.678Z,12.98
2018-05-16T23:09:38.565Z,12.92
2018-05-16T23:12:07.464Z,12.88
2018-05-16T23:14:36.286Z,12.87
2018-05-16T23:17:05.140Z,12.89
2018-05-16T23:19:33.946Z,12.80
2018-05-16T23:22:02.767Z,12.70
2018-05-16T23:24:31.569Z,12.78
2018-05-16T23:27:00.392Z,12.76
2018-05-16T23:29:29.217Z,12.71
2018-05-16T23:31:58.035Z,12.70
2018-05-16T23:34:26.848Z,12.69
2018-05-16T23:36:55.693Z,12.67
2018-05-16T23:39:24.498Z,12.66
2018-05-16T23:41:53.308Z,12.61
2018-05-16T23:44:22.135Z,12.50
2018-05-16T23:46:50.951Z,12.52
2018-05-16T23:49:19.742Z,12.43
2018-05-16T23:51:48.522Z,12.34
2018-05-16T23:54:17.332Z,12.37
2018-05-16T23:56:46.116Z,12.42
2018-05-16T23:59:14.963Z,12.35
